createdAt,value
2018-11-20T00:02:28.290Z,10.20
2018-11-20T00:05:15.676Z,9.43
2018-11-20T00:08:03.263Z,11.00
2018-11-20T00:10:50.685Z,11.03
2018-11-20T00:13:39.678Z,11.03
2018-11-20T00:16:34.368Z,11.70
2018-11-20T00:19:26.079Z,12.37
2018-11-20T00:22:21.372Z,13.40
2018-11-20T00:25:09.300Z,15.65
2018-11-20T00:28:02.612Z,13.50
2018-11-20T00:31:10.348Z,11.77
2018-11-20T00:33:59.363Z,12.13
2018-11-20T00:37:00.249Z,11.33
2018-11-20T00:40:07.178Z,12.77
2018-11-20T00:42:54.904Z,11.63
2018-11-20T00:45:35.971Z,11.97
2018-11-20T00:48:29.289Z,11.90
2018-11-20T00:51:17.197Z,10.07
2018-11-20T00:54:04.527Z,10.80
2018-11-20T00:56:57.048Z,11.10
2018-11-20T00:59:42.637Z,11.70
2018-11-20T01:02:26.925Z,12.60
2018-11-20T01:05:19.607Z,11.27
2018-11-20T01:08:01.899Z,9.30
2018-11-20T01:10:49.795Z,11.70
2018-11-20T01:13:42.530Z,12.57
2018-11-20T01:16:37.366Z,12.17
2018-11-20T01:19:30.181Z,10.50
2018-11-20T01:22:18.289Z,10.63
2018-11-20T01:25:10.734Z,11.57
2018-11-20T01:27:59.245Z,12.50
2018-11-20T01:30:55.259Z,11.13
2018-11-20T01:33:42.328Z,10.70
2018-11-20T01:36:29.539Z,11.20
2018-11-20T01:39:24.596Z,10.70
2018-11-20T01:42:16.956Z,11.33
2018-11-20T01:45:04.678Z,11.13
2018-11-20T01:48:02.676Z,10.30
2018-11-20T01:51:03.992Z,9.93
2018-11-20T01:53:54.796Z,10.00
2018-11-20T01:56:44.072Z,10.40
2018-11-20T01:59:26.384Z,11.93
2018-11-20T02:02:26.873Z,10.80
2018-11-20T02:05:15.897Z,13.35
2018-11-20T02:08:04.249Z,13.27
2018-11-20T02:10:50.075Z,11.70
2018-11-20T02:14:32.250Z,12.10
2018-11-20T02:17:31.787Z,13.50
2018-11-20T02:20:24.485Z,12.37
2018-11-20T02:23:25.841Z,10.90
2018-11-20T02:26:20.281Z,11.57
2018-11-20T02:29:07.316Z,11.40
2018-11-20T02:32:05.946Z,11.40
2018-11-20T02:35:02.707Z,12.03
2018-11-20T02:37:51.101Z,10.80
2018-11-20T02:40:39.993Z,12.30
2018-11-20T02:43:27.604Z,12.30
2018-11-20T02:46:15.548Z,12.95
2018-11-20T02:49:03.378Z,11.30
2018-11-20T02:51:52.439Z,11.20
2018-11-20T02:54:41.095Z,13.95
2018-11-20T02:57:36.510Z,12.47
2018-11-20T03:00:21.781Z,12.53
2018-11-20T03:03:20.799Z,11.83
2018-11-20T03:06:15.822Z,11.63
2018-11-20T03:09:04.327Z,12.17
2018-11-20T03:11:56.181Z,12.63
2018-11-20T03:14:51.937Z,11.87
2018-11-20T03:17:40.980Z,11.27
2018-11-20T03:20:39.175Z,12.00
2018-11-20T03:23:36.931Z,12.30
2018-11-20T03:26:27.177Z,11.17
2018-11-20T03:30:09.475Z,12.43
2018-11-20T03:33:07.540Z,11.27
2018-11-20T03:35:48.604Z,11.20
2018-11-20T03:38:55.722Z,11.50
2018-11-20T03:41:43.684Z,11.70
2018-11-20T03:44:41.181Z,13.43
2018-11-20T03:47:23.544Z,13.23
2018-11-20T03:50:16.679Z,12.50
2018-11-20T03:53:08.181Z,11.40
2018-11-20T03:56:00.414Z,13.40
2018-11-20T03:58:51.953Z,12.90
2018-11-20T04:01:45.079Z,12.43
2018-11-20T04:04:49.148Z,13.63
2018-11-20T04:07:36.877Z,12.10
2018-11-20T04:10:24.523Z,14.35
2018-11-20T04:13:13.347Z,13.47
2018-11-20T04:16:00.883Z,12.50
2018-11-20T04:18:49.296Z,12.83
2018-11-20T04:21:37.902Z,13.80
2018-11-20T04:24:29.331Z,12.90
2018-11-20T04:27:16.826Z,13.53
2018-11-20T04:30:05.333Z,13.07
2018-11-20T04:32:43.917Z,13.40
2018-11-20T04:35:36.366Z,14.20
2018-11-20T04:38:19.480Z,15.03
2018-11-20T04:41:11.873Z,15.37
2018-11-20T04:43:51.779Z,12.73
2018-11-20T04:46:38.754Z,12.27
2018-11-20T04:49:18.418Z,13.30
2018-11-20T04:52:11.115Z,13.07
2018-11-20T04:54:54.805Z,13.73
2018-11-20T04:57:45.098Z,12.90
2018-11-20T05:00:39.871Z,14.47
2018-11-20T05:03:44.049Z,15.17
2018-11-20T05:06:33.443Z,14.20
2018-11-20T05:09:20.979Z,14.67
2018-11-20T05:12:22.483Z,15.23
2018-11-20T05:15:11.083Z,14.63
2018-11-20T05:18:11.898Z,14.20
2018-11-20T05:21:12.203Z,15.33
2018-11-20T05:23:57.886Z,14.70
2018-11-20T05:26:50.625Z,17.45
2018-11-20T05:29:48.087Z,15.90
2018-11-20T05:32:42.588Z,14.60
2018-11-20T05:35:22.322Z,18.48
2018-11-20T05:38:09.941Z,15.63
2018-11-20T05:41:07.728Z,14.70
2018-11-20T05:44:02.938Z,14.63
2018-11-20T05:46:52.796Z,18.57
2018-11-20T05:49:40.601Z,18.60
2018-11-20T05:52:38.438Z,16.37
2018-11-20T05:55:36.393Z,17.10
2018-11-20T05:58:24.940Z,16.90
2018-11-20T06:01:19.767Z,16.60
2018-11-20T06:04:18.422Z,18.50
2018-11-20T06:07:20.492Z,18.70
2018-11-20T06:10:08.075Z,18.82
2018-11-20T06:13:11.877Z,21.17
2018-11-20T06:16:07.674Z,19.03
2018-11-20T06:19:05.592Z,21.70
2018-11-20T06:21:54.079Z,19.70
2018-11-20T06:24:41.826Z,20.63
2018-11-20T06:27:29.722Z,18.07
2018-11-20T06:30:10.966Z,18.07
2018-11-20T06:33:08.733Z,20.10
2018-11-20T06:35:56.072Z,19.03
2018-11-20T06:38:53.806Z,19.13
2018-11-20T06:41:50.454Z,18.93
2018-11-20T06:44:38.107Z,18.13
2018-11-20T06:47:25.181Z,17.00
2018-11-20T06:50:12.488Z,20.37
2018-11-20T06:52:59.923Z,19.00
2018-11-20T06:55:41.559Z,19.17
2018-11-20T06:58:33.623Z,20.13
2018-11-20T07:01:26.068Z,18.23
2018-11-20T07:04:14.329Z,18.47
2018-11-20T07:07:16.055Z,18.47
2018-11-20T07:10:03.058Z,18.93
2018-11-20T07:12:57.400Z,18.03
2018-11-20T07:16:01.419Z,21.07
2018-11-20T07:18:48.487Z,20.50
2018-11-20T07:21:29.499Z,19.50
2018-11-20T07:24:21.049Z,20.10
2018-11-20T07:27:24.452Z,19.33
2018-11-20T07:30:22.475Z,19.40
2018-11-20T07:33:09.723Z,19.80
2018-11-20T07:35:51.823Z,19.87
2018-11-20T07:38:39.151Z,20.30
2018-11-20T07:41:27.308Z,19.00
2018-11-20T07:44:19.123Z,16.73
2018-11-20T07:47:10.720Z,19.07
2018-11-20T07:50:02.476Z,18.30
2018-11-20T07:52:54.672Z,18.93
2018-11-20T07:55:44.196Z,19.50
2018-11-20T07:58:49.034Z,20.10
2018-11-20T08:01:38.646Z,19.03
2018-11-20T08:04:30.835Z,20.03
2018-11-20T08:07:25.754Z,20.57
2018-11-20T08:10:29.586Z,22.77
2018-11-20T08:13:34.509Z,20.77
2018-11-20T08:16:22.101Z,20.53
2018-11-20T08:19:06.868Z,20.83
2018-11-20T08:21:55.080Z,21.07
2018-11-20T08:24:43.666Z,19.87
2018-11-20T08:27:31.432Z,20.40
2018-11-20T08:30:19.211Z,21.77
2018-11-20T08:33:11.757Z,20.40
2018-11-20T08:36:16.092Z,20.23
2018-11-20T08:39:03.596Z,19.80
2018-11-20T08:41:53.910Z,19.60
2018-11-20T08:44:51.897Z,19.30
2018-11-20T08:47:55.866Z,19.63
2018-11-20T08:50:42.422Z,19.50
2018-11-20T08:53:31.223Z,20.50
2018-11-20T08:56:19.914Z,18.90
2018-11-20T08:59:17.982Z,18.57
2018-11-20T09:02:16.388Z,17.57
2018-11-20T09:05:10.196Z,18.50
2018-11-20T09:08:08.397Z,18.23
2018-11-20T09:10:59.514Z,18.80
2018-11-20T09:13:59.860Z,18.20
2018-11-20T09:16:44.100Z,16.10
2018-11-20T09:19:42.630Z,17.03
2018-11-20T09:22:34.489Z,17.83
2018-11-20T09:25:22.137Z,15.40
2018-11-20T09:28:10.383Z,17.23
2018-11-20T09:31:12.295Z,17.37
2018-11-20T09:33:54.499Z,16.60
2018-11-20T09:36:43.840Z,17.20
2018-11-20T09:39:41.585Z,15.70
2018-11-20T09:42:48.005Z,15.03
2018-11-20T09:46:23.529Z,15.60
2018-11-20T09:49:24.786Z,14.93
2018-11-20T09:52:10.014Z,15.27
2018-11-20T09:54:59.661Z,16.67
2018-11-20T09:57:41.074Z,16.20
2018-11-20T10:00:33.228Z,15.43
2018-11-20T10:03:24.657Z,14.83
2018-11-20T10:06:28.508Z,16.37
2018-11-20T10:09:16.544Z,16.10
2018-11-20T10:12:04.180Z,15.23
2018-11-20T10:14:48.665Z,14.40
2018-11-20T10:17:46.596Z,14.67
2018-11-20T10:20:34.847Z,16.17
2018-11-20T10:23:22.359Z,16.87
2018-11-20T10:26:09.434Z,16.27
2018-11-20T10:28:56.724Z,17.13
2018-11-20T10:31:44.865Z,16.17
2018-11-20T10:34:33.097Z,17.20
2018-11-20T10:37:21.786Z,16.37
2018-11-20T10:40:13.170Z,15.47
2018-11-20T10:43:20.409Z,14.57
2018-11-20T10:46:18.413Z,16.40
2018-11-20T10:49:06.799Z,16.70
2018-11-20T10:51:56.945Z,16.97
2018-11-20T10:54:48.402Z,15.63
2018-11-20T10:57:55.281Z,15.37
2018-11-20T11:00:43.956Z,16.77
2018-11-20T11:03:45.044Z,16.73
2018-11-20T11:06:33.769Z,16.10
2018-11-20T11:09:21.421Z,16.70
2018-11-20T11:12:09.372Z,17.37
2018-11-20T11:14:56.620Z,17.43
2018-11-20T11:17:59.018Z,17.50
2018-11-20T11:20:46.854Z,18.10
2018-11-20T11:23:38.547Z,19.17
2018-11-20T11:26:26.045Z,18.80
2018-11-20T11:29:18.289Z,18.97
2018-11-20T11:32:05.281Z,18.57
2018-11-20T11:35:05.806Z,18.97
2018-11-20T11:37:43.753Z,20.37
2018-11-20T11:40:45.475Z,18.80
2018-11-20T11:43:47.322Z,18.87
2018-11-20T11:46:44.714Z,19.90
2018-11-20T11:49:32.340Z,19.93
2018-11-20T11:52:20.350Z,19.60
2018-11-20T11:55:09.772Z,20.20
2018-11-20T11:57:58.216Z,19.13
2018-11-20T12:00:51.107Z,20.40
2018-11-20T12:03:39.072Z,19.00
2018-11-20T12:06:40.201Z,19.83
2018-11-20T12:09:24.385Z,19.83
2018-11-20T12:12:03.829Z,19.10
2018-11-20T12:14:52.391Z,18.83
2018-11-20T12:17:39.890Z,20.57
2018-11-20T12:20:34.721Z,19.03
2018-11-20T12:23:25.719Z,18.70
2018-11-20T12:26:12.715Z,19.47
2018-11-20T12:28:59.137Z,19.07
2018-11-20T12:31:50.660Z,18.30
2018-11-20T12:34:37.617Z,21.30
2018-11-20T12:37:26.770Z,19.87
2018-11-20T12:40:16.815Z,20.80
2018-11-20T12:43:13.081Z,20.03
2018-11-20T12:46:17.240Z,19.73
2018-11-20T12:49:06.918Z,19.80
2018-11-20T12:52:08.275Z,18.57
2018-11-20T12:54:56.709Z,20.00
2018-11-20T12:58:04.142Z,19.03
2018-11-20T13:00:46.651Z,20.70
2018-11-20T13:03:54.598Z,19.10
2018-11-20T13:06:42.538Z,18.70
2018-11-20T13:09:37.847Z,20.37
2018-11-20T13:12:25.620Z,20.50
2018-11-20T13:15:30.522Z,21.23
2018-11-20T13:18:14.092Z,20.27
2018-11-20T13:21:03.840Z,20.17
2018-11-20T13:24:02.470Z,19.10
2018-11-20T13:26:49.825Z,19.47
2018-11-20T13:29:49.721Z,19.77
2018-11-20T13:32:41.326Z,18.93
2018-11-20T13:35:34.866Z,20.70
2018-11-20T13:38:35.642Z,19.23
2018-11-20T13:41:55.941Z,20.17
2018-11-20T13:44:58.968Z,19.93
2018-11-20T13:47:47.044Z,20.27
2018-11-20T13:50:41.057Z,19.80
2018-11-20T13:53:48.740Z,18.57
2018-11-20T13:56:40.708Z,20.33
2018-11-20T13:59:27.815Z,19.20
2018-11-20T14:02:28.563Z,19.10
2018-11-20T14:05:16.451Z,20.37
2018-11-20T14:08:01.330Z,20.47
2018-11-20T14:10:51.981Z,19.87
2018-11-20T14:13:34.508Z,18.50
2018-11-20T14:16:42.521Z,19.57
2018-11-20T14:19:31.788Z,18.00
2018-11-20T14:22:32.172Z,19.67
2018-11-20T14:25:19.832Z,19.37
2018-11-20T14:28:14.441Z,19.67
2018-11-20T14:30:53.887Z,20.70
2018-11-20T14:33:57.802Z,19.80
2018-11-20T14:36:53.418Z,20.93
2018-11-20T14:39:43.457Z,20.73
2018-11-20T14:42:35.997Z,20.70
2018-11-20T14:45:29.885Z,20.80
2018-11-20T14:48:18.575Z,19.40
2018-11-20T14:51:25.825Z,18.30
2018-11-20T14:54:09.257Z,18.50
2018-11-20T14:57:03.603Z,20.33
2018-11-20T14:59:50.975Z,21.47
2018-11-20T15:02:35.709Z,22.07
2018-11-20T15:05:35.304Z,23.10
2018-11-20T15:08:43.353Z,23.40
2018-11-20T15:11:30.884Z,22.33
2018-11-20T15:14:22.886Z,24.00
2018-11-20T15:17:26.369Z,24.03
2018-11-20T15:20:25.238Z,25.10
2018-11-20T15:23:15.795Z,28.17
2018-11-20T15:26:04.125Z,24.77
2018-11-20T15:28:51.942Z,27.30
2018-11-20T15:31:46.718Z,25.00
2018-11-20T15:34:33.438Z,28.63
2018-11-20T15:37:21.220Z,28.33
2018-11-20T15:40:16.783Z,25.40
2018-11-20T15:43:04.909Z,30.70
2018-11-20T15:45:54.543Z,28.80
2018-11-20T15:48:43.181Z,28.10
2018-11-20T15:51:32.611Z,28.50
2018-11-20T15:54:23.568Z,29.83
2018-11-20T15:57:18.437Z,28.97
2018-11-20T16:00:07.241Z,34.75
2018-11-20T16:02:46.776Z,27.93
2018-11-20T16:05:45.846Z,28.60
2018-11-20T16:08:32.875Z,26.23
2018-11-20T16:11:21.119Z,24.70
2018-11-20T16:14:15.716Z,26.93
2018-11-20T16:16:54.786Z,25.40
2018-11-20T16:19:42.873Z,25.53
2018-11-20T16:22:33.069Z,25.07
2018-11-20T16:25:28.799Z,25.37
2018-11-20T16:28:24.271Z,26.00
2018-11-20T16:31:15.881Z,24.40
2018-11-20T16:34:02.648Z,24.63
2018-11-20T16:37:02.930Z,27.05
2018-11-20T16:40:00.420Z,25.97
2018-11-20T16:42:52.280Z,24.50
2018-11-20T16:45:40.991Z,25.80
2018-11-20T16:48:28.180Z,25.43
2018-11-20T16:51:31.990Z,23.50
2018-11-20T16:54:19.810Z,25.07
2018-11-20T16:57:24.147Z,24.40
2018-11-20T17:00:12.046Z,24.40
2018-11-20T17:03:01.941Z,23.60
2018-11-20T17:06:02.244Z,22.90
2018-11-20T17:08:54.503Z,23.87
2018-11-20T17:11:33.881Z,21.53
2018-11-20T17:14:21.104Z,24.40
2018-11-20T17:17:12.957Z,22.00
2018-11-20T17:20:10.687Z,23.93
2018-11-20T17:23:12.450Z,27.48
2018-11-20T17:26:13.769Z,24.17
2018-11-20T17:31:25.016Z,23.27
2018-11-20T17:34:12.354Z,22.40
2018-11-20T17:37:06.272Z,25.20
2018-11-20T17:40:06.888Z,21.90
2018-11-20T17:42:54.878Z,24.13
2018-11-20T17:45:43.540Z,23.67
2018-11-20T17:48:39.695Z,22.80
2018-11-20T17:51:31.467Z,23.47
2018-11-20T17:54:33.288Z,23.23
2018-11-20T17:57:20.570Z,23.33
2018-11-20T18:00:15.408Z,23.57
2018-11-20T18:03:10.490Z,25.40
2018-11-20T18:06:04.958Z,26.57
2018-11-20T18:08:53.985Z,24.20
2018-11-20T18:11:45.926Z,25.20
2018-11-20T18:14:44.701Z,32.50
2018-11-20T18:17:39.851Z,26.80
2018-11-20T18:20:27.484Z,25.00
2018-11-20T18:23:16.894Z,25.00
2018-11-20T18:25:59.077Z,25.80
2018-11-20T18:29:06.229Z,24.30
2018-11-20T18:31:53.504Z,24.03
2018-11-20T18:34:54.400Z,27.67
2018-11-20T18:37:43.788Z,24.70
2018-11-20T18:40:39.119Z,25.60
2018-11-20T18:43:27.172Z,24.13
2018-11-20T18:46:17.600Z,23.07
2018-11-20T18:49:06.205Z,24.10
2018-11-20T18:51:47.531Z,25.10
2018-11-20T18:54:40.050Z,23.83
2018-11-20T18:57:38.885Z,29.60
2018-11-20T19:00:32.649Z,25.20
2018-11-20T19:03:20.244Z,25.40
2018-11-20T19:06:07.610Z,24.67
2018-11-20T19:08:57.332Z,25.70
2018-11-20T19:11:48.489Z,26.40
2018-11-20T19:14:37.460Z,25.77
2018-11-20T19:17:25.712Z,24.73
2018-11-20T19:20:04.120Z,23.37
2018-11-20T19:22:52.348Z,26.47
2018-11-20T19:25:50.342Z,22.77
2018-11-20T19:28:45.015Z,24.17
2018-11-20T19:31:32.495Z,23.40
2018-11-20T19:34:27.689Z,26.00
2018-11-20T19:37:15.111Z,25.13
2018-11-20T19:40:02.562Z,25.87
2018-11-20T19:42:57.073Z,24.53
2018-11-20T19:45:44.752Z,23.10
2018-11-20T19:48:40.312Z,24.27
2018-11-20T19:51:27.639Z,25.63
2018-11-20T19:54:25.682Z,23.43
2018-11-20T19:57:17.208Z,24.90
2018-11-20T20:00:18.466Z,23.73
2018-11-20T20:03:06.164Z,22.23
2018-11-20T20:05:54.321Z,25.00
2018-11-20T20:08:55.361Z,27.37
2018-11-20T20:11:48.390Z,24.00
2018-11-20T20:14:40.582Z,24.37
2018-11-20T20:17:29.457Z,23.63
2018-11-20T20:20:16.829Z,24.67
2018-11-20T20:23:04.357Z,24.47
2018-11-20T20:25:53.403Z,22.73
2018-11-20T20:28:42.055Z,25.17
2018-11-20T20:31:43.112Z,24.73
2018-11-20T20:34:36.195Z,23.90
2018-11-20T20:37:24.336Z,22.57
2018-11-20T20:40:12.663Z,23.10
2018-11-20T20:43:10.019Z,24.30
2018-11-20T20:46:02.032Z,23.13
2018-11-20T20:48:56.200Z,24.10
2018-11-20T20:51:44.044Z,24.50
2018-11-20T20:54:31.697Z,22.77
2018-11-20T20:57:20.300Z,22.90
2018-11-20T21:00:03.083Z,23.40
2018-11-20T21:03:03.921Z,21.73
2018-11-20T21:05:51.316Z,24.47
2018-11-20T21:08:45.097Z,24.10
2018-11-20T21:11:27.700Z,21.60
2018-11-20T21:14:15.942Z,24.47
2018-11-20T21:17:03.574Z,22.23
2018-11-20T21:19:51.673Z,23.57
2018-11-20T21:22:38.221Z,22.07
2018-11-20T21:25:25.947Z,21.77
2018-11-20T21:28:13.809Z,22.53
2018-11-20T21:31:14.359Z,23.10
2018-11-20T21:34:11.819Z,25.20
2018-11-20T21:37:01.248Z,21.30
2018-11-20T21:39:50.926Z,23.00
2018-11-20T21:42:45.444Z,24.77
2018-11-20T21:45:34.389Z,24.60
2018-11-20T21:48:30.296Z,23.87
2018-11-20T21:51:17.639Z,22.07
2018-11-20T21:55:38.876Z,24.30
2018-11-20T21:58:24.408Z,21.63
2018-11-20T22:01:17.128Z,24.07
2018-11-20T22:04:19.575Z,23.80
2018-11-20T22:07:06.466Z,23.23
2018-11-20T22:10:13.565Z,23.70
2018-11-20T22:13:00.110Z,22.43
2018-11-20T22:15:57.876Z,24.10
2018-11-20T22:18:51.932Z,24.50
2018-11-20T22:21:45.896Z,24.00
2018-11-20T22:24:37.030Z,25.73
2018-11-20T22:27:23.765Z,24.07
2018-11-20T22:30:18.127Z,25.53
2018-11-20T22:33:05.180Z,29.57
2018-11-20T22:36:02.085Z,26.90
2018-11-20T22:38:42.890Z,22.80
2018-11-20T22:41:37.565Z,24.93
2018-11-20T22:44:40.810Z,24.90
2018-11-20T22:47:38.654Z,24.87
2018-11-20T22:50:30.837Z,25.30
2018-11-20T22:53:30.717Z,23.53
2018-11-20T22:56:13.907Z,25.10
2018-11-20T22:59:08.327Z,25.20
2018-11-20T23:02:15.290Z,24.70
2018-11-20T23:05:14.433Z,24.00
2018-11-20T23:07:45.189Z,24.90
2018-11-20T23:10:18.467Z,25.20
2018-11-20T23:12:47.601Z,25.27
2018-11-20T23:15:17.260Z,24.50
2018-11-20T23:17:45.830Z,26.63
2018-11-20T23:20:15.220Z,26.00
2018-11-20T23:22:44.239Z,24.70
2018-11-20T23:25:14.513Z,26.30
2018-11-20T23:27:43.196Z,25.80
2018-11-20T23:30:13.570Z,25.13
2018-11-20T23:32:42.835Z,27.27
2018-11-20T23:35:12.658Z,25.07
2018-11-20T23:37:42.637Z,26.30
2018-11-20T23:40:12.519Z,27.37
2018-11-20T23:42:42.836Z,24.73
2018-11-20T23:45:13.501Z,25.73
2018-11-20T23:47:42.559Z,24.20
2018-11-20T23:50:13.823Z,27.00
2018-11-20T23:52:42.936Z,27.67
2018-11-20T23:55:13.168Z,25.80
2018-11-20T23:57:43.119Z,26.27
